Auburndale, Massachusetts
Current Conditions -  °F | °C
As of 7:54 AM on Friday 19 Dec 2014 (Local Time) from KBOS Reporting Station
Broken Clouds Broken Clouds  
Wind Chill: -4°   Ceiling: 5000
Heat Index:   Visibility: 10mi
Dew Point: -4°   Wind: 15mph
Humidity: 67%   Direction: 310°NW
Pressure: 29.93"   Gusts: NA
Location:  42.35°N, 70.95°W
Report Text: KBOS 191254Z 31013KT 10SM FEW034 BKN050 01/M04 A2993 RMK AO2 SLP133 T00111044
Loading
Personal Weather Stations






























Interactive Weather Map New forecast layout! Learn more

10-Day Weather Forecast

Advertisements
Track Severe Weather on mobile